St Louis Regional Airport Alton,St Louis US
ICAO: KALN
IATA: ALN
Category: Medium
Scheduled Services: No

Elevation: 544 ft
TransAlt. 18000 ft.

Airport Communications:
APP/DEP:124.2
ATIS:128
AWOS 3:128
CLNC DEL:120.2
CTAF:126
GND:120.2
RDO:122.05
REGIONAL TWR:126
UNICOM:122.95

KALN Zoom In..

If you have problems with the map follow the link
https://www.worldairports.se/pages/airport.php?
ICAO=KALN

Runways:

(A) RW 11 length 8099 ft width 150 ft
---- / hdg 114

(B) RW 17 length 6500 ft width 100 ft
---- / hdg 174

(C) RW 29 length 8099 ft width 150 ft
ILS 108.50 / hdg 294

(D) RW 35 length 6500 ft width 100 ft
---- / hdg 354

Location; KALN
Day. 21 / Time. 18.50 Zulu
* Altimeter: 30.33
* Temperature: 11° c. 51.8°f.
* Wind from: 220° Speed 10 kn.
Dewpoint: -03° c.
Visibility: 10 Statute Miles.
Clouds: Clear (manual report).

KALN 211850Z 22010KT 10SM SKC 11/M03 A3033


Wind From 220°
Speed 10 kn.

 
 
jpsmedia.com for Web Design worldairports.se 2018   terms of use